Time;durP1;ratioP1;P1;durP2;ratioP2;P2;SDS_P1;SDS_P2;PMS_P1;PMS_P2;Temp;Humidity;BMP_temperature;BMP_pressure;BME280_temperature;BME280_humidity;BME280_pressure;Samples;Min_cycle;Max_cycle;Signal;HPM_P1;HPM_P2
2022/10/22 00:02:18;;;;;;;2.38;2.05;;;;;;;;;;5055110;27;93481;-79
2022/10/22 00:04:46;;;;;;;1.60;1.50;;;;;;;;;;5054289;27;93532;-79
2022/10/22 00:07:12;;;;;;;1.60;1.48;;;;;;;;;;5058079;27;92351;-79
2022/10/22 00:09:39;;;;;;;3.13;1.92;;;;;;;;;;5052868;27;95757;-79
2022/10/22 00:12:05;;;;;;;3.42;1.80;;;;;;;;;;5054698;27;92447;-79
2022/10/22 00:14:32;;;;;;;3.50;2.03;;;;;;;;;;5054720;27;93148;-79
2022/10/22 00:16:59;;;;;;;1.67;1.50;;;;;;;;;;5050907;27;93528;-79
2022/10/22 00:19:26;;;;;;;3.47;1.52;;;;;;;;;;5054471;27;92505;-79
2022/10/22 00:21:52;;;;;;;1.70;1.40;;;;;;;;;;5054466;27;93456;-79
2022/10/22 00:24:19;;;;;;;1.90;1.80;;;;;;;;;;5055069;27;92419;-79
2022/10/22 00:26:45;;;;;;;2.97;1.50;;;;;;;;;;5058205;27;91725;-79
2022/10/22 00:29:11;;;;;;;4.00;1.80;;;;;;;;;;5035900;27;93379;-79
2022/10/22 00:31:38;;;;;;;2.53;1.80;;;;;;;;;;5036401;27;92954;-79
2022/10/22 00:34:04;;;;;;;1.80;1.70;;;;;;;;;;5052763;27;94917;-79
2022/10/22 00:36:30;;;;;;;1.90;1.45;;;;;;;;;;5053919;27;93443;-80
2022/10/22 00:38:56;;;;;;;1.58;1.48;;;;;;;;;;5054079;27;92461;-79
2022/10/22 00:41:23;;;;;;;2.70;2.00;;;;;;;;;;5054632;27;93158;-79
2022/10/22 00:43:53;;;;;;;1.60;1.50;;;;;;;;;;5053906;27;93625;-79
2022/10/22 00:46:20;;;;;;;3.67;1.67;;;;;;;;;;5054249;27;92505;-79
2022/10/22 00:48:46;;;;;;;2.58;1.70;;;;;;;;;;5039043;27;93226;-79
2022/10/22 00:51:12;;;;;;;2.95;1.83;;;;;;;;;;5054465;27;91738;-79
2022/10/22 00:53:44;;;;;;;3.15;1.70;;;;;;;;;;5036751;27;93682;-79
2022/10/22 00:56:10;;;;;;;3.55;1.50;;;;;;;;;;5055821;27;93415;-79
2022/10/22 00:58:40;;;;;;;1.70;1.60;;;;;;;;;;5037810;27;94813;-79
2022/10/22 01:01:08;;;;;;;1.65;1.55;;;;;;;;;;5057225;27;95480;-79
2022/10/22 01:03:34;;;;;;;1.92;1.60;;;;;;;;;;5038964;27;92473;-79
2022/10/22 01:06:02;;;;;;;1.58;1.48;;;;;;;;;;5057440;27;92559;-79
2022/10/22 01:08:41;;;;;;;4.05;1.65;;;;;;;;;;5057257;27;93166;-79
2022/10/22 01:11:16;;;;;;;2.45;1.92;;;;;;;;;;5060460;27;93488;-80
2022/10/22 01:14:02;;;;;;;3.05;1.92;;;;;;;;;;5057683;27;93200;-79
2022/10/22 01:16:35;;;;;;;3.67;1.70;;;;;;;;;;5057745;27;92666;-79
2022/10/22 01:19:08;;;;;;;2.10;1.73;;;;;;;;;;5057486;27;92386;-79
2022/10/22 01:21:45;;;;;;;1.63;1.40;;;;;;;;;;5057235;27;93073;-79
2022/10/22 01:24:20;;;;;;;3.30;1.60;;;;;;;;;;5055629;27;95834;-79
2022/10/22 01:26:52;;;;;;;1.80;1.70;;;;;;;;;;5038929;27;92428;-79
2022/10/22 01:29:23;;;;;;;2.70;1.70;;;;;;;;;;5057175;27;93455;-80
2022/10/22 01:32:09;;;;;;;2.60;1.60;;;;;;;;;;5057168;27;93452;-80
2022/10/22 01:34:37;;;;;;;3.42;1.75;;;;;;;;;;5059944;27;92469;-79
2022/10/22 01:37:03;;;;;;;2.88;2.28;;;;;;;;;;5056651;27;93725;-79
2022/10/22 01:39:30;;;;;;;2.97;1.50;;;;;;;;;;5057294;27;92438;-80
2022/10/22 01:41:57;;;;;;;1.60;1.50;;;;;;;;;;5057227;27;93135;-79
2022/10/22 01:44:27;;;;;;;3.97;2.03;;;;;;;;;;5056671;27;93414;-79
2022/10/22 01:47:12;;;;;;;2.58;1.88;;;;;;;;;;5057027;27;92444;-79
2022/10/22 01:50:02;;;;;;;2.30;1.40;;;;;;;;;;5037360;27;94840;-79
2022/10/22 01:52:47;;;;;;;2.28;1.70;;;;;;;;;;4938242;28;93442;-79
2022/10/22 01:55:13;;;;;;;1.90;1.73;;;;;;;;;;4954701;28;92516;-79
2022/10/22 01:57:49;;;;;;;2.30;1.85;;;;;;;;;;4957460;28;93119;-79
2022/10/22 02:00:17;;;;;;;2.05;1.70;;;;;;;;;;4938157;28;92573;-79
2022/10/22 02:02:49;;;;;;;3.72;2.00;;;;;;;;;;4954455;28;93065;-79
2022/10/22 02:05:27;;;;;;;2.47;1.95;;;;;;;;;;4937662;28;93458;-79
2022/10/22 02:08:00;;;;;;;1.90;1.80;;;;;;;;;;4954902;28;91716;-79
2022/10/22 02:10:28;;;;;;;3.28;1.70;;;;;;;;;;4954005;28;94913;-79
2022/10/22 02:12:55;;;;;;;2.35;2.00;;;;;;;;;;4954230;28;93452;-79
2022/10/22 02:15:24;;;;;;;2.80;1.98;;;;;;;;;;4952264;28;95037;-79
2022/10/22 02:17:52;;;;;;;2.30;2.10;;;;;;;;;;4957160;28;95487;-79
2022/10/22 02:20:21;;;;;;;2.97;1.80;;;;;;;;;;4954251;28;92545;-79
2022/10/22 02:22:48;;;;;;;1.67;1.50;;;;;;;;;;4937705;28;93039;-79
2022/10/22 02:25:15;;;;;;;3.33;1.80;;;;;;;;;;4954628;28;92601;-79
2022/10/22 02:27:45;;;;;;;2.22;1.75;;;;;;;;;;4953989;28;92584;-79
2022/10/22 02:30:13;;;;;;;3.88;1.88;;;;;;;;;;5014319;28;93130;-79
2022/10/22 02:32:50;;;;;;;2.97;2.25;;;;;;;;;;5035763;28;92355;-79
2022/10/22 02:35:19;;;;;;;2.60;1.77;;;;;;;;;;5017427;28;92495;-79
2022/10/22 02:37:46;;;;;;;3.43;2.00;;;;;;;;;;5035607;28;93132;-79
2022/10/22 02:40:12;;;;;;;4.43;1.80;;;;;;;;;;5037227;28;95708;-79
2022/10/22 02:42:39;;;;;;;2.90;1.92;;;;;;;;;;5036264;28;95466;-80
2022/10/22 02:45:06;;;;;;;2.47;1.80;;;;;;;;;;5036851;27;93483;-79
2022/10/22 02:47:33;;;;;;;1.95;1.75;;;;;;;;;;5056130;27;92375;-79
2022/10/22 02:49:59;;;;;;;3.58;2.17;;;;;;;;;;5055479;27;93056;-79
2022/10/22 02:52:25;;;;;;;2.55;2.17;;;;;;;;;;5055499;27;93830;-79
2022/10/22 02:54:52;;;;;;;2.83;1.63;;;;;;;;;;5056213;27;92405;-79
2022/10/22 02:57:18;;;;;;;2.22;2.00;;;;;;;;;;5056456;27;93158;-80
2022/10/22 02:59:47;;;;;;;3.42;1.55;;;;;;;;;;5056114;27;95655;-79
2022/10/22 03:02:14;;;;;;;2.25;1.45;;;;;;;;;;5058841;27;92549;-79
2022/10/22 03:04:40;;;;;;;1.45;1.35;;;;;;;;;;5053395;27;95748;-79
2022/10/22 03:07:06;;;;;;;2.00;1.90;;;;;;;;;;5037933;27;92394;-79
2022/10/22 03:09:33;;;;;;;3.35;2.10;;;;;;;;;;5055510;27;93396;-79
2022/10/22 03:11:59;;;;;;;1.90;1.80;;;;;;;;;;5055877;27;96435;-79
2022/10/22 03:14:25;;;;;;;3.50;2.25;;;;;;;;;;5037212;27;92523;-79
2022/10/22 03:16:52;;;;;;;2.53;2.28;;;;;;;;;;5037213;27;93447;-79
2022/10/22 03:19:18;;;;;;;2.70;2.00;;;;;;;;;;5055124;27;94487;-80
2022/10/22 03:21:47;;;;;;;3.55;1.80;;;;;;;;;;5037742;27;91701;-79
2022/10/22 03:24:16;;;;;;;2.45;2.10;;;;;;;;;;5058492;27;92431;-79
2022/10/22 03:26:44;;;;;;;2.10;1.90;;;;;;;;;;5037336;27;92538;-79
2022/10/22 03:29:11;;;;;;;2.42;1.67;;;;;;;;;;5053825;27;94781;-80
2022/10/22 03:31:37;;;;;;;1.92;1.60;;;;;;;;;;5036553;27;93501;-79
2022/10/22 03:34:03;;;;;;;2.72;2.03;;;;;;;;;;5055410;27;92376;-79
2022/10/22 03:36:30;;;;;;;2.08;1.67;;;;;;;;;;5037507;27;94119;-79
2022/10/22 03:38:56;;;;;;;1.77;1.58;;;;;;;;;;5037390;27;93187;-79
2022/10/22 03:41:22;;;;;;;5.30;2.33;;;;;;;;;;5037219;27;92434;-79
2022/10/22 03:43:51;;;;;;;2.47;1.48;;;;;;;;;;5055299;27;93139;-79
2022/10/22 03:46:18;;;;;;;2.15;1.90;;;;;;;;;;5058764;27;92778;-79
2022/10/22 03:48:45;;;;;;;2.60;1.75;;;;;;;;;;5055138;27;92385;-79
2022/10/22 03:51:11;;;;;;;1.73;1.55;;;;;;;;;;5054772;27;93439;-80
2022/10/22 03:53:37;;;;;;;1.50;1.40;;;;;;;;;;5035753;27;94829;-79
2022/10/22 03:56:08;;;;;;;2.15;1.50;;;;;;;;;;5055068;27;95471;-80
2022/10/22 03:58:35;;;;;;;2.80;2.10;;;;;;;;;;5036580;27;93457;-78
2022/10/22 04:01:05;;;;;;;2.40;1.85;;;;;;;;;;5054813;27;92761;-79
2022/10/22 04:03:32;;;;;;;1.60;1.50;;;;;;;;;;5036650;27;93326;-79
2022/10/22 04:06:02;;;;;;;2.35;1.38;;;;;;;;;;5054249;27;93820;-79
2022/10/22 04:08:29;;;;;;;3.67;2.10;;;;;;;;;;5040297;27;92473;-79
2022/10/22 04:10:55;;;;;;;2.88;1.92;;;;;;;;;;5055022;27;93357;-79
2022/10/22 04:13:21;;;;;;;2.80;1.65;;;;;;;;;;5054402;27;92451;-79
2022/10/22 04:15:48;;;;;;;2.95;1.90;;;;;;;;;;5054979;27;93110;-79
2022/10/22 04:18:14;;;;;;;3.78;2.00;;;;;;;;;;5034776;27;95997;-79
2022/10/22 04:20:40;;;;;;;5.05;1.90;;;;;;;;;;5054686;27;92469;-79
2022/10/22 04:23:06;;;;;;;3.10;1.83;;;;;;;;;;5036991;27;93499;-79
2022/10/22 04:25:33;;;;;;;1.80;1.27;;;;;;;;;;5054370;27;93711;-80
2022/10/22 04:27:59;;;;;;;2.00;1.67;;;;;;;;;;5057496;27;92476;-79
2022/10/22 04:30:26;;;;;;;2.47;1.70;;;;;;;;;;5055040;27;93415;-80
2022/10/22 04:32:52;;;;;;;2.30;1.60;;;;;;;;;;5058241;27;92503;-80
2022/10/22 04:35:18;;;;;;;2.40;2.20;;;;;;;;;;5059141;27;93685;-80
2022/10/22 04:37:47;;;;;;;4.47;1.83;;;;;;;;;;5058137;27;93684;-79
2022/10/22 04:40:13;;;;;;;1.88;1.75;;;;;;;;;;5040092;27;92468;-80
2022/10/22 04:42:39;;;;;;;2.63;1.55;;;;;;;;;;5056956;27;94795;-79
2022/10/22 04:45:06;;;;;;;4.13;1.77;;;;;;;;;;5057624;27;93346;-79
2022/10/22 04:47:32;;;;;;;1.98;1.75;;;;;;;;;;5058187;27;92448;-79
2022/10/22 04:49:58;;;;;;;2.08;1.88;;;;;;;;;;5060957;27;93122;-79
2022/10/22 04:52:25;;;;;;;1.42;1.30;;;;;;;;;;5057679;27;92480;-80
2022/10/22 04:54:51;;;;;;;2.13;1.77;;;;;;;;;;5039461;27;93087;-79
2022/10/22 04:57:17;;;;;;;3.63;2.05;;;;;;;;;;5057549;27;93380;-79
2022/10/22 04:59:43;;;;;;;1.73;1.58;;;;;;;;;;5058424;27;92047;-79
2022/10/22 05:02:10;;;;;;;2.08;1.58;;;;;;;;;;5040225;27;93274;-79
2022/10/22 05:04:36;;;;;;;2.65;1.88;;;;;;;;;;5057215;27;95282;-80
2022/10/22 05:07:02;;;;;;;4.03;1.50;;;;;;;;;;5056590;27;94880;-80
2022/10/22 05:09:29;;;;;;;2.00;1.67;;;;;;;;;;5039367;27;95616;-80
2022/10/22 05:11:55;;;;;;;1.95;1.55;;;;;;;;;;5060312;27;93539;-79
2022/10/22 05:14:22;;;;;;;1.70;1.60;;;;;;;;;;5057533;27;93113;-79
2022/10/22 05:16:49;;;;;;;2.85;1.83;;;;;;;;;;5057189;27;93400;-79
2022/10/22 05:19:26;;;;;;;4.03;2.15;;;;;;;;;;5039258;27;92483;-79
2022/10/22 05:21:54;;;;;;;2.47;2.00;;;;;;;;;;5057214;27;93166;-78
2022/10/22 05:24:20;;;;;;;2.15;1.63;;;;;;;;;;5040009;27;93916;-79
2022/10/22 05:26:50;;;;;;;4.15;2.15;;;;;;;;;;5057012;27;92484;-79
2022/10/22 05:29:17;;;;;;;;;;;;;;;;;;5057494;27;93098;-79
2022/10/22 05:31:43;;;;;;;2.90;1.70;;;;;;;;;;5038121;27;126501;-79
2022/10/22 05:34:10;;;;;;;3.55;1.92;;;;;;;;;;5060234;27;92516;-79
2022/10/22 05:36:36;;;;;;;2.92;2.58;;;;;;;;;;5038101;27;93345;-79
2022/10/22 05:39:02;;;;;;;2.60;1.80;;;;;;;;;;5039183;27;92465;-79
2022/10/22 05:41:29;;;;;;;5.47;2.45;;;;;;;;;;5038582;27;92425;-80
2022/10/22 05:43:56;;;;;;;2.25;2.05;;;;;;;;;;5056860;27;93247;-79
2022/10/22 05:46:24;;;;;;;2.75;2.33;;;;;;;;;;5056790;27;92527;-80
2022/10/22 05:48:51;;;;;;;4.10;1.77;;;;;;;;;;5057748;27;94318;-80
2022/10/22 05:51:18;;;;;;;1.67;1.58;;;;;;;;;;5056418;27;93458;-79
2022/10/22 05:53:44;;;;;;;5.00;1.77;;;;;;;;;;5038766;27;92599;-80
2022/10/22 05:56:12;;;;;;;2.75;2.22;;;;;;;;;;5040209;27;94887;-79
2022/10/22 05:58:38;;;;;;;5.03;2.00;;;;;;;;;;5039062;27;92538;-79
2022/10/22 06:01:21;;;;;;;3.53;2.08;;;;;;;;;;5056682;27;93171;-79
2022/10/22 06:03:47;;;;;;;3.40;1.67;;;;;;;;;;5037316;27;93611;-79
2022/10/22 06:06:17;;;;;;;2.97;1.88;;;;;;;;;;5056689;27;92495;-79
2022/10/22 06:08:44;;;;;;;4.17;1.77;;;;;;;;;;5056739;27;93092;-79
2022/10/22 06:11:10;;;;;;;3.70;1.60;;;;;;;;;;5056304;27;93492;-79
2022/10/22 06:13:37;;;;;;;3.25;1.88;;;;;;;;;;5056724;27;92233;-80
2022/10/22 06:16:03;;;;;;;3.05;1.80;;;;;;;;;;5038021;27;92405;-79
2022/10/22 06:18:30;;;;;;;2.15;1.73;;;;;;;;;;5059951;27;93096;-79
2022/10/22 06:21:02;;;;;;;2.13;1.40;;;;;;;;;;5054529;27;94819;-79
2022/10/22 06:23:28;;;;;;;4.05;1.48;;;;;;;;;;5056069;27;93474;-79
2022/10/22 06:25:55;;;;;;;2.90;2.13;;;;;;;;;;5039036;27;92493;-79
2022/10/22 06:28:21;;;;;;;2.42;1.60;;;;;;;;;;5056117;27;93001;-79
2022/10/22 06:30:49;;;;;;;3.75;2.30;;;;;;;;;;5056380;27;93211;-79
2022/10/22 06:33:15;;;;;;;2.40;1.95;;;;;;;;;;5037969;27;92461;-80
2022/10/22 06:35:41;;;;;;;3.05;1.95;;;;;;;;;;5055901;27;93459;-79
2022/10/22 06:38:08;;;;;;;2.25;1.98;;;;;;;;;;5041645;27;92652;-79
2022/10/22 06:40:34;;;;;;;3.47;1.83;;;;;;;;;;5037976;27;92500;-79
2022/10/22 06:43:01;;;;;;;5.47;3.70;;;;;;;;;;5055669;27;93641;-79
2022/10/22 06:45:27;;;;;;;2.60;2.40;;;;;;;;;;5053867;27;94901;-79
2022/10/22 06:47:54;;;;;;;2.03;1.75;;;;;;;;;;5055640;27;95823;-79
2022/10/22 06:50:20;;;;;;;2.97;2.13;;;;;;;;;;5055761;27;93361;-79
2022/10/22 06:52:47;;;;;;;3.45;1.90;;;;;;;;;;5020209;27;92518;-79
2022/10/22 06:55:13;;;;;;;4.70;1.80;;;;;;;;;;5055697;27;93276;-79
2022/10/22 06:57:39;;;;;;;5.80;2.30;;;;;;;;;;5055659;27;93443;-79
2022/10/22 07:00:06;;;;;;;2.97;1.60;;;;;;;;;;5040722;27;92487;-79
2022/10/22 07:02:33;;;;;;;2.92;2.08;;;;;;;;;;5056600;27;92228;-80
2022/10/22 07:04:59;;;;;;;1.85;1.63;;;;;;;;;;5037120;27;92478;-79
2022/10/22 07:07:26;;;;;;;4.65;2.03;;;;;;;;;;5055557;27;93033;-79
2022/10/22 07:09:52;;;;;;;1.60;1.42;;;;;;;;;;5053693;27;96135;-80
2022/10/22 07:12:18;;;;;;;2.72;1.75;;;;;;;;;;5055529;27;92463;-79
2022/10/22 07:14:44;;;;;;;3.60;2.90;;;;;;;;;;5055747;27;94137;-79
2022/10/22 07:17:10;;;;;;;3.38;1.95;;;;;;;;;;5054903;27;93413;-79
2022/10/22 07:19:37;;;;;;;2.80;1.80;;;;;;;;;;5055765;27;92433;-79
2022/10/22 07:22:03;;;;;;;3.45;2.20;;;;;;;;;;5058073;27;93228;-80
2022/10/22 07:24:29;;;;;;;4.00;2.45;;;;;;;;;;5037182;27;92456;-79
2022/10/22 07:26:56;;;;;;;3.00;2.15;;;;;;;;;;5055500;27;93169;-79
2022/10/22 07:29:22;;;;;;;2.25;1.80;;;;;;;;;;5055410;27;94470;-79
2022/10/22 07:31:48;;;;;;;2.70;2.00;;;;;;;;;;5055916;27;92442;-79
2022/10/22 07:34:15;;;;;;;3.20;2.10;;;;;;;;;;5036016;27;94798;-80
2022/10/22 07:36:41;;;;;;;3.60;2.65;;;;;;;;;;5036734;27;93546;-79
2022/10/22 07:39:07;;;;;;;3.42;2.65;;;;;;;;;;5037071;27;92465;-79
2022/10/22 07:41:33;;;;;;;2.90;1.98;;;;;;;;;;5055005;27;93472;-79
2022/10/22 07:44:00;;;;;;;3.50;1.90;;;;;;;;;;5057989;27;93382;-79
2022/10/22 07:46:26;;;;;;;4.03;2.40;;;;;;;;;;5054721;27;93611;-79
2022/10/22 07:48:52;;;;;;;3.65;1.73;;;;;;;;;;5054672;27;93452;-79
2022/10/22 07:51:19;;;;;;;3.88;2.05;;;;;;;;;;5055770;27;91765;-79
2022/10/22 07:53:45;;;;;;;4.50;1.60;;;;;;;;;;5055642;27;92492;-79
2022/10/22 07:56:12;;;;;;;3.28;1.80;;;;;;;;;;5054397;27;93381;-79
2022/10/22 07:58:40;;;;;;;2.05;1.52;;;;;;;;;;5053422;27;94870;-79
2022/10/22 08:01:06;;;;;;;4.10;2.30;;;;;;;;;;5054767;27;95529;-79
2022/10/22 08:03:32;;;;;;;1.88;1.73;;;;;;;;;;5054707;27;93703;-79
2022/10/22 08:05:59;;;;;;;2.45;1.65;;;;;;;;;;5060768;27;92452;-79
2022/10/22 08:08:26;;;;;;;1.38;1.27;;;;;;;;;;5058876;27;96109;-79
2022/10/22 08:10:57;;;;;;;3.20;1.77;;;;;;;;;;5040803;27;92583;-79
2022/10/22 08:13:25;;;;;;;2.88;1.65;;;;;;;;;;5040411;27;93077;-79
2022/10/22 08:15:51;;;;;;;2.47;1.38;;;;;;;;;;5059071;27;95716;-79
2022/10/22 08:18:22;;;;;;;3.33;1.40;;;;;;;;;;5041092;27;92427;-80
2022/10/22 08:20:49;;;;;;;2.72;1.70;;;;;;;;;;5058436;27;93102;-79
2022/10/22 08:23:15;;;;;;;3.42;1.65;;;;;;;;;;5056516;27;98491;-80
2022/10/22 08:25:42;;;;;;;2.65;1.70;;;;;;;;;;5058541;27;92827;-79
2022/10/22 08:28:08;;;;;;;2.22;1.70;;;;;;;;;;5061208;27;93228;-79
2022/10/22 08:30:36;;;;;;;2.28;1.40;;;;;;;;;;5058765;27;92379;-79
2022/10/22 08:33:03;;;;;;;2.35;1.33;;;;;;;;;;5058154;27;93128;-79
2022/10/22 08:35:30;;;;;;;2.47;1.60;;;;;;;;;;5057742;27;93709;-79
2022/10/22 08:37:56;;;;;;;4.05;1.80;;;;;;;;;;5057918;27;92498;-79
2022/10/22 08:40:41;;;;;;;2.30;1.20;;;;;;;;;;5058089;27;93344;-79
2022/10/22 08:43:10;;;;;;;2.40;1.40;;;;;;;;;;5057887;27;93379;-79
2022/10/22 08:45:44;;;;;;;3.22;1.85;;;;;;;;;;5039624;27;93037;-79
2022/10/22 08:48:10;;;;;;;4.13;1.70;;;;;;;;;;5058930;27;94728;-79
2022/10/22 08:50:47;;;;;;;2.15;1.67;;;;;;;;;;5039527;27;92455;-79
2022/10/22 08:53:18;;;;;;;2.55;1.48;;;;;;;;;;5039890;27;93080;-79
2022/10/22 08:55:45;;;;;;;2.17;1.60;;;;;;;;;;5058014;27;93261;-79
2022/10/22 08:58:21;;;;;;;4.47;1.92;;;;;;;;;;5057683;27;92518;-80
2022/10/22 09:01:01;;;;;;;4.28;1.60;;;;;;;;;;5058308;27;92982;-79
2022/10/22 09:03:46;;;;;;;3.30;1.83;;;;;;;;;;5057407;27;93404;-79
2022/10/22 09:06:21;;;;;;;2.50;1.45;;;;;;;;;;5058205;27;91636;-79
2022/10/22 09:08:48;;;;;;;2.00;1.80;;;;;;;;;;5057418;27;92603;-79
2022/10/22 09:11:17;;;;;;;3.65;1.77;;;;;;;;;;5060235;27;93890;-79
2022/10/22 09:13:44;;;;;;;2.37;1.30;;;;;;;;;;5037811;27;94946;-79
2022/10/22 09:16:18;;;;;;;3.65;1.48;;;;;;;;;;5038656;27;94356;-79
2022/10/22 09:18:54;;;;;;;3.88;1.65;;;;;;;;;;5039305;27;92406;-79
2022/10/22 09:21:26;;;;;;;4.38;1.55;;;;;;;;;;5057750;27;93381;-79
2022/10/22 09:23:55;;;;;;;3.72;1.42;;;;;;;;;;5057327;27;93372;-79
2022/10/22 09:26:21;;;;;;;3.45;1.42;;;;;;;;;;5057233;27;92398;-80
2022/10/22 09:28:48;;;;;;;1.63;1.20;;;;;;;;;;5057409;27;93467;-79
2022/10/22 09:31:15;;;;;;;3.35;1.25;;;;;;;;;;5057557;27;92632;-79
2022/10/22 09:33:42;;;;;;;4.53;1.75;;;;;;;;;;5060307;27;92502;-79
2022/10/22 09:36:12;;;;;;;2.22;1.60;;;;;;;;;;5056768;27;93417;-79
2022/10/22 09:38:40;;;;;;;5.18;1.20;;;;;;;;;;5056260;27;94718;-79
2022/10/22 09:41:07;;;;;;;2.85;1.48;;;;;;;;;;5057322;27;95837;-79
2022/10/22 09:43:35;;;;;;;3.50;1.50;;;;;;;;;;5056972;27;93436;-80
2022/10/22 09:46:03;;;;;;;2.13;1.38;;;;;;;;;;5056830;27;92488;-80
2022/10/22 09:48:33;;;;;;;3.20;1.40;;;;;;;;;;5056920;27;93102;-79
2022/10/22 09:51:12;;;;;;;4.85;1.42;;;;;;;;;;5038646;27;93572;-79
2022/10/22 09:53:43;;;;;;;4.87;1.43;;;;;;;;;;5057645;27;92435;-79
2022/10/22 09:56:35;;;;;;;2.33;1.30;;;;;;;;;;5042339;27;93146;-80
2022/10/22 09:59:01;;;;;;;2.00;1.38;;;;;;;;;;5056321;27;92446;-79
2022/10/22 10:01:30;;;;;;;1.63;0.98;;;;;;;;;;5056771;27;93000;-79
2022/10/22 10:04:04;;;;;;;6.53;1.70;;;;;;;;;;5036068;27;96148;-79
2022/10/22 10:06:38;;;;;;;2.75;1.63;;;;;;;;;;5056677;27;92900;-79
2022/10/22 10:09:18;;;;;;;3.10;1.67;;;;;;;;;;5056595;27;93132;-79
2022/10/22 10:11:44;;;;;;;;;;;;;;;;;;5057097;27;93715;-78
2022/10/22 10:14:14;;;;;;;11.57;1.67;;;;;;;;;;5057261;27;118422;-79
2022/10/22 10:16:50;;;;;;;4.40;1.38;;;;;;;;;;5038417;27;93155;-80
2022/10/22 10:19:32;;;;;;;3.70;1.48;;;;;;;;;;5059621;27;93382;-79
2022/10/22 10:22:11;;;;;;;3.38;1.45;;;;;;;;;;5056702;27;93447;-79
2022/10/22 10:25:05;;;;;;;3.40;1.50;;;;;;;;;;5038196;27;93402;-79
2022/10/22 10:27:31;;;;;;;4.00;1.73;;;;;;;;;;5056585;27;92426;-79
2022/10/22 10:30:16;;;;;;;5.57;1.90;;;;;;;;;;5054587;27;94757;-79
2022/10/22 10:32:51;;;;;;;4.10;1.55;;;;;;;;;;5056170;27;93364;-79
2022/10/22 10:35:21;;;;;;;5.07;1.42;;;;;;;;;;5038185;27;92514;-79
2022/10/22 10:37:55;;;;;;;2.57;1.33;;;;;;;;;;5056016;27;93106;-79
2022/10/22 10:40:45;;;;;;;3.77;1.33;;;;;;;;;;5055935;27;93099;-79
2022/10/22 10:43:31;;;;;;;2.85;1.40;;;;;;;;;;5041525;27;92447;-79
2022/10/22 10:46:09;;;;;;;2.83;1.20;;;;;;;;;;5055750;27;93760;-80
2022/10/22 10:48:38;;;;;;;5.03;1.42;;;;;;;;;;5056585;27;91748;-79
2022/10/22 10:51:19;;;;;;;3.28;1.08;;;;;;;;;;5055849;27;92407;-79
2022/10/22 10:53:57;;;;;;;4.05;1.60;;;;;;;;;;5056060;27;93397;-79
2022/10/22 10:56:23;;;;;;;3.83;1.55;;;;;;;;;;5054287;27;94983;-79
2022/10/22 10:59:06;;;;;;;6.63;1.63;;;;;;;;;;5038550;27;93996;-80
2022/10/22 11:01:47;;;;;;;4.82;1.17;;;;;;;;;;5055474;27;93430;-79
2022/10/22 11:04:17;;;;;;;4.57;1.48;;;;;;;;;;5040977;27;92490;-79
2022/10/22 11:06:44;;;;;;;3.30;1.25;;;;;;;;;;5055679;27;93489;-79
2022/10/22 11:09:21;;;;;;;5.18;1.60;;;;;;;;;;5037815;27;92527;-80
2022/10/22 11:11:50;;;;;;;3.45;1.63;;;;;;;;;;5037608;27;93521;-79
2022/10/22 11:14:19;;;;;;;2.35;1.35;;;;;;;;;;5037692;27;92638;-79
2022/10/22 11:16:54;;;;;;;2.17;1.13;;;;;;;;;;5055225;27;92418;-79
2022/10/22 11:19:23;;;;;;;2.67;1.23;;;;;;;;;;5037392;27;93116;-79
2022/10/22 11:22:12;;;;;;;4.20;1.58;;;;;;;;;;5053790;27;95397;-79
2022/10/22 11:24:38;;;;;;;3.50;1.30;;;;;;;;;;5055440;27;92517;-79
2022/10/22 11:27:24;;;;;;;4.38;1.50;;;;;;;;;;5058274;27;93156;-80
2022/10/22 11:29:55;;;;;;;2.65;1.30;;;;;;;;;;5037681;27;92483;-79
2022/10/22 11:32:22;;;;;;;2.60;1.40;;;;;;;;;;5055489;27;93065;-80
2022/10/22 11:34:50;;;;;;;5.43;1.20;;;;;;;;;;5037098;27;93417;-79
2022/10/22 11:37:16;;;;;;;6.47;1.85;;;;;;;;;;5055487;27;92446;-79
2022/10/22 11:39:46;;;;;;;2.88;1.25;;;;;;;;;;5055424;27;94179;-79
2022/10/22 11:42:30;;;;;;;7.93;1.67;;;;;;;;;;5054898;27;93370;-79
2022/10/22 11:44:58;;;;;;;2.80;1.17;;;;;;;;;;5055855;27;92361;-79
2022/10/22 11:47:31;;;;;;;4.30;1.58;;;;;;;;;;5033048;28;94759;-79
2022/10/22 11:50:16;;;;;;;2.95;1.20;;;;;;;;;;5037396;28;93427;-79
2022/10/22 11:52:53;;;;;;;8.23;1.60;;;;;;;;;;5035510;28;92877;-79
2022/10/22 11:55:50;;;;;;;3.92;1.67;;;;;;;;;;5034458;28;93447;-79
2022/10/22 11:58:25;;;;;;;2.45;1.35;;;;;;;;;;5035140;28;92372;-80
2022/10/22 12:00:52;;;;;;;3.92;1.20;;;;;;;;;;5034568;28;93111;-79
2022/10/22 12:03:39;;;;;;;4.45;1.20;;;;;;;;;;5016805;28;94534;-79
2022/10/22 12:06:10;;;;;;;3.33;1.30;;;;;;;;;;4995084;28;91751;-79
2022/10/22 12:08:42;;;;;;;3.55;1.35;;;;;;;;;;4994905;28;92409;-79
2022/10/22 12:11:09;;;;;;;4.15;1.42;;;;;;;;;;4994650;28;93635;-79
2022/10/22 12:13:52;;;;;;;3.80;1.35;;;;;;;;;;4996497;28;95284;-79
2022/10/22 12:16:21;;;;;;;8.57;1.40;;;;;;;;;;5004318;28;93397;-79
2022/10/22 12:19:15;;;;;;;4.35;1.50;;;;;;;;;;5014408;28;92606;-79
2022/10/22 12:21:44;;;;;;;6.07;1.50;;;;;;;;;;5012952;28;93179;-79
2022/10/22 12:24:15;;;;;;;4.53;1.42;;;;;;;;;;5014555;28;93366;-79
2022/10/22 12:26:42;;;;;;;4.93;1.70;;;;;;;;;;5014076;28;92487;-79
2022/10/22 12:29:10;;;;;;;4.70;1.45;;;;;;;;;;5014465;28;93431;-79
2022/10/22 12:31:37;;;;;;;6.40;1.63;;;;;;;;;;5013255;28;92689;-79
2022/10/22 12:34:04;;;;;;;4.40;1.70;;;;;;;;;;5014264;28;92466;-79
2022/10/22 12:36:33;;;;;;;5.40;1.52;;;;;;;;;;5015632;28;93969;-79
2022/10/22 12:39:00;;;;;;;7.50;1.97;;;;;;;;;;5012567;28;94852;-79
2022/10/22 12:41:31;;;;;;;4.97;1.60;;;;;;;;;;5012519;28;95526;-79
2022/10/22 12:44:02;;;;;;;4.50;1.60;;;;;;;;;;5012880;28;93638;-79
2022/10/22 12:46:30;;;;;;;4.85;1.50;;;;;;;;;;5014309;28;92855;-79
2022/10/22 12:49:00;;;;;;;3.47;1.50;;;;;;;;;;5012704;28;93069;-79
2022/10/22 12:51:26;;;;;;;;;;;;;;;;;;5014949;28;93419;-80
2022/10/22 12:53:54;;;;;;;4.25;1.55;;;;;;;;;;5018247;28;118048;-80
2022/10/22 12:56:28;;;;;;;5.07;1.38;;;;;;;;;;5019314;28;93137;-79
2022/10/22 12:58:59;;;;;;;5.13;1.88;;;;;;;;;;5017623;28;92440;-80
2022/10/22 13:01:27;;;;;;;4.78;1.50;;;;;;;;;;5016089;28;93180;-79
2022/10/22 13:04:18;;;;;;;5.97;1.65;;;;;;;;;;5017269;27;95824;-79
2022/10/22 13:06:45;;;;;;;2.17;1.27;;;;;;;;;;5057535;27;92500;-79
2022/10/22 13:09:35;;;;;;;3.75;1.70;;;;;;;;;;5057627;27;92407;-79
2022/10/22 13:12:03;;;;;;;3.58;1.52;;;;;;;;;;5026441;27;93759;-79
2022/10/22 13:14:31;;;;;;;4.45;1.60;;;;;;;;;;5057443;27;92513;-79
2022/10/22 13:17:11;;;;;;;3.88;1.30;;;;;;;;;;5053544;27;93429;-81
2022/10/22 13:19:43;;;;;;;7.18;2.00;;;;;;;;;;5042268;27;93429;-80
2022/10/22 13:22:26;;;;;;;2.97;1.52;;;;;;;;;;5057792;27;93437;-79
2022/10/22 13:24:54;;;;;;;4.20;1.55;;;;;;;;;;5057026;27;93726;-79
2022/10/22 13:27:27;;;;;;;3.65;1.50;;;;;;;;;;5057316;27;92515;-80
2022/10/22 13:29:54;;;;;;;3.35;1.55;;;;;;;;;;5055809;27;94926;-79
2022/10/22 13:32:20;;;;;;;5.05;1.30;;;;;;;;;;5056882;27;93408;-79
2022/10/22 13:34:47;;;;;;;6.88;1.95;;;;;;;;;;5038933;27;92536;-79
2022/10/22 13:37:13;;;;;;;4.95;1.58;;;;;;;;;;5039412;27;93591;-79
2022/10/22 13:39:39;;;;;;;4.60;1.70;;;;;;;;;;5056907;27;93983;-80
2022/10/22 13:42:10;;;;;;;7.25;2.17;;;;;;;;;;5041783;27;92458;-79
2022/10/22 13:44:36;;;;;;;9.13;1.77;;;;;;;;;;5039147;27;94476;-80
2022/10/22 13:47:04;;;;;;;6.90;1.70;;;;;;;;;;5057856;27;91774;-79
2022/10/22 13:49:31;;;;;;;5.65;1.77;;;;;;;;;;5038900;27;92459;-80
2022/10/22 13:51:59;;;;;;;6.70;2.10;;;;;;;;;;5056746;27;94807;-79
2022/10/22 13:54:25;;;;;;;3.50;1.60;;;;;;;;;;5055027;27;94917;-79
2022/10/22 13:56:52;;;;;;;5.85;1.80;;;;;;;;;;5057333;27;95453;-80
2022/10/22 13:59:18;;;;;;;6.68;1.98;;;;;;;;;;5038566;27;93535;-79
2022/10/22 14:01:49;;;;;;;5.32;1.85;;;;;;;;;;5056567;27;92416;-79
2022/10/22 14:04:15;;;;;;;4.43;1.60;;;;;;;;;;5059103;27;93385;-79
2022/10/22 14:06:41;;;;;;;7.47;1.92;;;;;;;;;;5056757;27;92476;-79
2022/10/22 14:09:12;;;;;;;5.72;1.65;;;;;;;;;;5056571;27;95339;-79
2022/10/22 14:11:38;;;;;;;4.88;1.50;;;;;;;;;;5057061;27;92899;-79
2022/10/22 14:14:07;;;;;;;6.68;2.00;;;;;;;;;;5056951;27;92449;-79
2022/10/22 14:16:35;;;;;;;4.80;2.00;;;;;;;;;;5056463;27;93652;-79
2022/10/22 14:19:02;;;;;;;5.88;1.65;;;;;;;;;;5036338;27;96101;-79
2022/10/22 14:21:31;;;;;;;6.40;1.90;;;;;;;;;;5038355;27;92490;-79
2022/10/22 14:23:58;;;;;;;5.30;1.50;;;;;;;;;;5056603;27;93332;-79
2022/10/22 14:26:30;;;;;;;5.82;1.75;;;;;;;;;;5041337;27;93410;-79
2022/10/22 14:28:56;;;;;;;5.20;1.80;;;;;;;;;;5038083;27;93477;-79
2022/10/22 14:31:36;;;;;;;5.18;1.92;;;;;;;;;;5056244;27;93455;-79
2022/10/22 14:34:02;;;;;;;8.75;2.13;;;;;;;;;;5037772;27;92438;-79
2022/10/22 14:36:28;;;;;;;9.45;2.65;;;;;;;;;;5056556;27;93198;-79
2022/10/22 14:38:54;;;;;;;6.53;1.80;;;;;;;;;;5055702;27;93434;-79
2022/10/22 14:41:25;;;;;;;6.57;1.65;;;;;;;;;;5038723;27;92540;-80
2022/10/22 14:43:53;;;;;;;4.30;1.70;;;;;;;;;;5036230;27;94858;-80
2022/10/22 14:46:20;;;;;;;4.50;1.55;;;;;;;;;;5055739;27;93825;-79
2022/10/22 14:48:46;;;;;;;5.68;1.40;;;;;;;;;;5059130;27;92463;-79
2022/10/22 14:51:14;;;;;;;5.97;2.00;;;;;;;;;;5055622;27;93473;-79
2022/10/22 14:53:40;;;;;;;5.88;1.70;;;;;;;;;;5055759;27;92464;-79
2022/10/22 14:56:08;;;;;;;5.22;1.92;;;;;;;;;;5056024;27;93156;-79
2022/10/22 14:58:34;;;;;;;4.93;1.42;;;;;;;;;;5037999;27;94669;-79